Time;durP1;ratioP1;P1;durP2;ratioP2;P2;SDS_P1;SDS_P2;PMS_P1;PMS_P2;Temp;Humidity;BMP_temperature;BMP_pressure;BME280_temperature;BME280_humidity;BME280_pressure;Samples;Min_cycle;Max_cycle;Signal;HPM_P1;HPM_P2
2023/04/26 00:01:04;;;;;;;4.28;3.33;;;;;;;;;;10070321;28;20145;-66
2023/04/26 00:06:07;;;;;;;4.70;4.30;;;;;;;;;;10062131;28;20053;-66
2023/04/26 00:11:01;;;;;;;4.95;4.32;;;;;;;;;;10073741;28;20091;-66
2023/04/26 00:15:54;;;;;;;5.35;3.03;;;;;;;;;;10082071;28;20058;-66
2023/04/26 00:20:48;;;;;;;4.03;2.38;;;;;;;;;;10079686;28;20051;-66
2023/04/26 00:25:41;;;;;;;3.35;2.47;;;;;;;;;;10102596;28;20048;-65
2023/04/26 00:30:40;;;;;;;2.22;1.90;;;;;;;;;;10104382;28;20130;-66
2023/04/26 00:35:33;;;;;;;3.13;2.07;;;;;;;;;;10073814;28;20053;-66
2023/04/26 00:40:27;;;;;;;2.38;2.10;;;;;;;;;;10065450;28;20042;-67
2023/04/26 00:45:23;;;;;;;3.17;2.40;;;;;;;;;;10066939;28;20050;-66
2023/04/26 00:50:19;;;;;;;3.50;2.60;;;;;;;;;;10069130;28;20133;-66
2023/04/26 00:55:12;;;;;;;2.50;2.30;;;;;;;;;;10065875;28;20447;-66
2023/04/26 01:00:09;;;;;;;2.38;2.17;;;;;;;;;;10087870;28;20063;-66
2023/04/26 01:05:01;;;;;;;3.15;2.95;;;;;;;;;;10065358;28;20519;-66
2023/04/26 01:09:57;;;;;;;3.70;3.40;;;;;;;;;;10068595;28;20049;-66
2023/04/26 01:14:50;;;;;;;3.63;3.33;;;;;;;;;;10083911;28;20092;-68
2023/04/26 01:19:50;;;;;;;4.45;3.88;;;;;;;;;;10072540;28;20041;-68
2023/04/26 01:24:45;;;;;;;3.83;3.22;;;;;;;;;;10088872;28;20060;-68
2023/04/26 01:29:38;;;;;;;4.05;3.28;;;;;;;;;;10057267;28;20053;-66
2023/04/26 01:34:33;;;;;;;3.40;3.10;;;;;;;;;;10081812;28;20052;-66
2023/04/26 01:39:27;;;;;;;3.17;2.88;;;;;;;;;;10073229;28;20065;-69
2023/04/26 01:44:20;;;;;;;2.83;2.58;;;;;;;;;;10082264;28;20056;-68
2023/04/26 01:49:14;;;;;;;3.25;2.90;;;;;;;;;;10080792;28;20081;-68
2023/04/26 01:54:07;;;;;;;4.30;2.88;;;;;;;;;;10071155;28;20045;-68
2023/04/26 01:59:00;;;;;;;5.07;2.92;;;;;;;;;;10070427;28;20069;-67
2023/04/26 02:03:54;;;;;;;3.47;3.17;;;;;;;;;;10079994;28;20493;-66
2023/04/26 02:08:48;;;;;;;3.42;3.08;;;;;;;;;;10076703;28;20408;-66
2023/04/26 02:13:43;;;;;;;2.85;2.50;;;;;;;;;;10080540;28;20045;-68
2023/04/26 02:18:37;;;;;;;3.92;3.25;;;;;;;;;;10058734;28;20072;-68
2023/04/26 02:23:30;;;;;;;4.60;4.15;;;;;;;;;;10083778;28;20053;-69
2023/04/26 02:28:23;;;;;;;4.78;4.20;;;;;;;;;;10076012;28;20128;-68
2023/04/26 02:33:19;;;;;;;5.68;3.78;;;;;;;;;;10056518;28;20038;-67
2023/04/26 02:38:12;;;;;;;4.43;4.00;;;;;;;;;;10079955;28;20057;-67
2023/04/26 02:43:06;;;;;;;5.60;3.63;;;;;;;;;;10082943;28;20512;-67
2023/04/26 02:47:59;;;;;;;4.22;3.83;;;;;;;;;;10069763;28;20115;-67
2023/04/26 02:52:52;;;;;;;5.22;3.55;;;;;;;;;;10075176;28;20053;-67
2023/04/26 02:57:45;;;;;;;3.97;3.60;;;;;;;;;;10055824;28;20495;-67
2023/04/26 03:02:38;;;;;;;4.90;4.50;;;;;;;;;;10083848;28;20084;-68
2023/04/26 03:07:33;;;;;;;5.05;4.03;;;;;;;;;;10072038;28;20853;-66
2023/04/26 03:12:26;;;;;;;6.15;5.55;;;;;;;;;;10088259;28;20505;-69
2023/04/26 03:17:20;;;;;;;5.68;5.15;;;;;;;;;;10080133;28;20045;-69
2023/04/26 03:22:15;;;;;;;4.35;3.95;;;;;;;;;;10072923;28;20048;-68
2023/04/26 03:27:09;;;;;;;3.60;3.30;;;;;;;;;;10085614;28;20053;-69
2023/04/26 03:32:06;;;;;;;3.35;3.05;;;;;;;;;;10074759;28;20152;-68
2023/04/26 03:37:00;;;;;;;4.00;3.05;;;;;;;;;;10057905;28;20128;-69
2023/04/26 03:41:55;;;;;;;4.18;3.78;;;;;;;;;;10084855;28;20077;-68
2023/04/26 03:46:48;;;;;;;3.60;3.30;;;;;;;;;;10090158;28;20068;-68
2023/04/26 03:51:43;;;;;;;5.07;3.25;;;;;;;;;;10101060;28;20072;-67
2023/04/26 03:56:36;;;;;;;4.43;2.90;;;;;;;;;;10101883;28;20131;-68
2023/04/26 04:01:30;;;;;;;3.47;2.85;;;;;;;;;;10120073;28;20048;-68
2023/04/26 04:06:24;;;;;;;4.70;3.10;;;;;;;;;;10098434;28;20044;-68
2023/04/26 04:11:16;;;;;;;4.82;3.05;;;;;;;;;;10119994;28;20049;-68
2023/04/26 04:16:10;;;;;;;2.95;2.67;;;;;;;;;;10111246;28;20044;-68
2023/04/26 04:21:05;;;;;;;4.47;4.05;;;;;;;;;;10099381;28;20044;-68
2023/04/26 04:25:59;;;;;;;3.38;3.08;;;;;;;;;;10100349;28;20469;-68
2023/04/26 04:30:52;;;;;;;3.42;3.13;;;;;;;;;;10112626;28;20079;-68
2023/04/26 04:35:46;;;;;;;5.15;3.20;;;;;;;;;;10105599;28;20388;-69
2023/04/26 04:40:41;;;;;;;3.15;2.75;;;;;;;;;;10094848;28;20059;-69
2023/04/26 04:45:36;;;;;;;4.20;3.38;;;;;;;;;;10090408;28;20107;-68
2023/04/26 04:50:31;;;;;;;9.30;3.13;;;;;;;;;;10100531;28;20508;-67
2023/04/26 04:55:25;;;;;;;3.35;2.75;;;;;;;;;;10117309;28;20492;-67
2023/04/26 05:00:21;;;;;;;5.57;3.65;;;;;;;;;;10117674;28;20678;-71
2023/04/26 05:05:26;;;;;;;4.95;3.35;;;;;;;;;;10116941;28;20530;-68
2023/04/26 05:10:20;;;;;;;4.22;3.78;;;;;;;;;;10129824;28;20070;-68
2023/04/26 05:15:13;;;;;;;6.20;4.00;;;;;;;;;;10122785;28;20128;-68
2023/04/26 05:20:09;;;;;;;4.53;3.95;;;;;;;;;;10125830;28;20058;-69
2023/04/26 05:25:06;;;;;;;4.25;3.63;;;;;;;;;;10132355;28;20407;-69
2023/04/26 05:30:02;;;;;;;5.70;4.55;;;;;;;;;;10137784;28;20130;-70
2023/04/26 05:35:21;;;;;;;5.65;3.55;;;;;;;;;;10119663;28;20475;-67
2023/04/26 05:40:15;;;;;;;9.48;4.32;;;;;;;;;;10152957;28;20040;-68
2023/04/26 05:45:11;;;;;;;5.38;3.65;;;;;;;;;;10124663;28;20605;-67
2023/04/26 05:50:10;;;;;;;5.40;3.17;;;;;;;;;;10140699;28;20458;-67
2023/04/26 05:55:09;;;;;;;3.58;3.22;;;;;;;;;;10130394;28;20048;-68
2023/04/26 06:00:11;;;;;;;9.88;4.60;;;;;;;;;;10128472;28;20506;-69
2023/04/26 06:05:10;;;;;;;8.02;3.90;;;;;;;;;;10135434;28;20052;-67
2023/04/26 06:10:03;;;;;;;8.35;4.28;;;;;;;;;;10147356;28;20063;-68
2023/04/26 06:15:00;;;;;;;9.27;5.18;;;;;;;;;;10147699;28;20475;-66
2023/04/26 06:19:58;;;;;;;12.48;4.97;;;;;;;;;;10125782;28;20068;-67
2023/04/26 06:24:56;;;;;;;10.65;3.83;;;;;;;;;;10138278;28;20090;-67
2023/04/26 06:29:55;;;;;;;6.65;4.07;;;;;;;;;;10144639;28;20052;-66
2023/04/26 06:34:54;;;;;;;12.50;7.75;;;;;;;;;;10135475;28;20068;-66
2023/04/26 06:39:50;;;;;;;16.08;10.68;;;;;;;;;;10126910;28;20106;-65
2023/04/26 06:44:50;;;;;;;15.10;7.32;;;;;;;;;;10125320;28;20043;-66
2023/04/26 06:49:50;;;;;;;7.10;4.07;;;;;;;;;;10130987;28;20048;-65
2023/04/26 06:54:49;;;;;;;6.45;4.38;;;;;;;;;;10137981;28;20056;-65
2023/04/26 06:59:50;;;;;;;6.07;3.42;;;;;;;;;;10138016;28;20457;-65
2023/04/26 07:04:43;;;;;;;5.05;4.13;;;;;;;;;;10147563;28;20132;-64
2023/04/26 07:09:39;;;;;;;4.75;3.28;;;;;;;;;;10137147;28;20055;-63
2023/04/26 07:14:42;;;;;;;5.90;2.65;;;;;;;;;;10133277;28;20047;-64
2023/04/26 07:19:54;;;;;;;5.47;3.70;;;;;;;;;;10139552;28;20060;-64
2023/04/26 07:24:56;;;;;;;40.88;4.75;;;;;;;;;;10149321;28;20097;-64
2023/04/26 07:29:56;;;;;;;6.95;3.65;;;;;;;;;;10149538;28;20071;-64
2023/04/26 07:34:58;;;;;;;3.28;2.97;;;;;;;;;;10146935;28;20052;-65
2023/04/26 07:40:00;;;;;;;5.30;3.88;;;;;;;;;;10133862;28;20090;-63
2023/04/26 07:44:54;;;;;;;4.18;3.25;;;;;;;;;;10146343;28;20059;-62
2023/04/26 07:49:53;;;;;;;5.68;3.05;;;;;;;;;;10143989;28;20089;-65
2023/04/26 07:54:49;;;;;;;3.30;2.75;;;;;;;;;;10141668;28;20056;-63
2023/04/26 07:59:44;;;;;;;3.22;3.03;;;;;;;;;;10154008;28;20105;-63
2023/04/26 08:04:46;;;;;;;2.50;2.30;;;;;;;;;;10163605;28;20044;-63
2023/04/26 08:09:42;;;;;;;3.13;2.83;;;;;;;;;;10155354;28;20048;-63
2023/04/26 08:14:40;;;;;;;4.20;3.35;;;;;;;;;;10137999;28;20451;-62
2023/04/26 08:19:38;;;;;;;5.32;3.53;;;;;;;;;;10138184;28;20037;-64
2023/04/26 08:24:36;;;;;;;3.63;3.33;;;;;;;;;;10138216;28;20445;-65
2023/04/26 08:29:30;;;;;;;2.78;2.53;;;;;;;;;;10135850;28;20060;-65
2023/04/26 08:34:27;;;;;;;3.60;2.60;;;;;;;;;;10141889;28;20037;-63
2023/04/26 08:39:23;;;;;;;4.77;2.40;;;;;;;;;;10124913;28;20559;-63
2023/04/26 08:44:24;;;;;;;2.28;2.08;;;;;;;;;;10130078;28;20067;-63
2023/04/26 08:49:24;;;;;;;2.28;1.55;;;;;;;;;;10135794;28;20079;-63
2023/04/26 08:54:18;;;;;;;3.70;1.80;;;;;;;;;;10137491;28;20487;-63
2023/04/26 08:59:13;;;;;;;5.60;1.52;;;;;;;;;;10124528;28;20503;-65
2023/04/26 09:04:08;;;;;;;1.95;1.45;;;;;;;;;;10143797;28;20051;-65
2023/04/26 09:09:03;;;;;;;3.58;2.08;;;;;;;;;;10146344;28;20538;-65
2023/04/26 09:13:57;;;;;;;4.75;1.42;;;;;;;;;;10145929;28;20041;-66
2023/04/26 09:18:56;;;;;;;1.90;1.70;;;;;;;;;;10140793;28;20048;-63
2023/04/26 09:23:58;;;;;;;2.35;2.10;;;;;;;;;;10133427;28;20044;-63
2023/04/26 09:29:14;;;;;;;4.85;2.55;;;;;;;;;;10141554;28;20075;-63
2023/04/26 09:34:11;;;;;;;2.03;1.77;;;;;;;;;;10125211;28;20056;-65
2023/04/26 09:39:10;;;;;;;3.42;2.28;;;;;;;;;;10131564;28;20067;-64
2023/04/26 09:44:21;;;;;;;2.88;1.85;;;;;;;;;;10140680;28;20049;-66
2023/04/26 09:49:19;;;;;;;1.92;1.58;;;;;;;;;;10099401;28;20064;-65
2023/04/26 09:54:17;;;;;;;1.60;1.40;;;;;;;;;;10098546;28;20055;-65
2023/04/26 09:59:18;;;;;;;2.30;1.25;;;;;;;;;;10104327;28;20049;-67
2023/04/26 10:04:16;;;;;;;3.70;1.38;;;;;;;;;;10118371;28;20049;-65
2023/04/26 10:09:13;;;;;;;2.40;1.50;;;;;;;;;;10083989;28;20053;-65
2023/04/26 10:14:11;;;;;;;4.63;1.27;;;;;;;;;;10113774;28;20055;-66
2023/04/26 10:19:08;;;;;;;1.73;1.30;;;;;;;;;;10105542;28;20116;-66
2023/04/26 10:24:04;;;;;;;1.65;1.27;;;;;;;;;;10091723;28;20072;-65
2023/04/26 10:29:02;;;;;;;1.55;0.95;;;;;;;;;;10103933;28;20045;-65
2023/04/26 10:34:18;;;;;;;3.92;1.90;;;;;;;;;;10072956;28;20124;-65
2023/04/26 10:39:23;;;;;;;3.40;1.15;;;;;;;;;;10075949;28;20543;-66
2023/04/26 10:44:44;;;;;;;3.42;1.40;;;;;;;;;;10077223;28;20053;-65
2023/04/26 10:49:47;;;;;;;3.65;1.77;;;;;;;;;;10099423;28;20053;-61
2023/04/26 10:55:01;;;;;;;3.72;1.40;;;;;;;;;;10125783;28;20062;-61
2023/04/26 11:00:15;;;;;;;3.22;1.48;;;;;;;;;;10126652;28;20041;-62
2023/04/26 11:05:11;;;;;;;3.17;2.03;;;;;;;;;;10115354;28;20103;-61
2023/04/26 11:10:13;;;;;;;2.10;1.75;;;;;;;;;;10125368;28;20045;-62
2023/04/26 11:15:12;;;;;;;3.50;1.80;;;;;;;;;;10112625;28;20044;-63
2023/04/26 11:20:20;;;;;;;1.77;1.27;;;;;;;;;;10114234;28;20231;-64
2023/04/26 11:25:17;;;;;;;1.83;1.40;;;;;;;;;;10135556;28;20407;-64
2023/04/26 11:30:13;;;;;;;2.20;1.60;;;;;;;;;;10125293;28;20045;-64
2023/04/26 11:35:07;;;;;;;;;;;;;;;;;;10135385;28;20049;-66
2023/04/26 11:40:01;;;;;;;1.30;1.20;;;;;;;;;;10099394;28;20330;-66
2023/04/26 11:44:58;;;;;;;2.35;1.83;;;;;;;;;;10126224;28;20056;-65
2023/04/26 11:49:51;;;;;;;3.28;1.67;;;;;;;;;;10102865;28;20396;-65
2023/04/26 11:54:44;;;;;;;2.05;1.17;;;;;;;;;;10068112;28;20487;-65
2023/04/26 11:59:38;;;;;;;2.58;1.80;;;;;;;;;;10090058;28;20131;-65
2023/04/26 12:04:32;;;;;;;1.63;1.50;;;;;;;;;;10076589;28;20124;-62
2023/04/26 12:09:30;;;;;;;1.63;1.20;;;;;;;;;;10087522;28;20041;-64
2023/04/26 12:14:32;;;;;;;3.35;1.10;;;;;;;;;;10095551;28;20423;-63
2023/04/26 12:19:43;;;;;;;5.00;0.90;;;;;;;;;;10082434;28;20049;-63
2023/04/26 12:24:38;;;;;;;2.83;0.80;;;;;;;;;;10072417;28;20068;-63
2023/04/26 12:29:32;;;;;;;6.70;1.83;;;;;;;;;;10076772;28;20064;-64
2023/04/26 12:34:26;;;;;;;1.90;1.10;;;;;;;;;;10081102;28;20457;-63
2023/04/26 12:39:20;;;;;;;2.67;1.13;;;;;;;;;;10072194;28;20044;-65
2023/04/26 12:44:13;;;;;;;3.38;1.00;;;;;;;;;;10073465;28;20041;-64
2023/04/26 12:49:07;;;;;;;4.32;0.85;;;;;;;;;;10081535;28;20143;-63
2023/04/26 12:54:04;;;;;;;3.43;1.20;;;;;;;;;;10128413;28;20045;-63
2023/04/26 12:59:00;;;;;;;1.55;1.23;;;;;;;;;;10132158;28;20086;-62
2023/04/26 13:03:55;;;;;;;1.33;1.00;;;;;;;;;;10133254;28;20055;-63
2023/04/26 13:08:51;;;;;;;2.58;0.90;;;;;;;;;;10136150;28;20168;-62
2023/04/26 13:13:50;;;;;;;1.23;0.82;;;;;;;;;;10129655;28;20077;-62
2023/04/26 13:18:45;;;;;;;1.92;1.30;;;;;;;;;;10120320;28;20137;-62
2023/04/26 13:23:40;;;;;;;1.92;1.42;;;;;;;;;;10125733;28;20041;-62
2023/04/26 13:28:35;;;;;;;2.30;1.75;;;;;;;;;;10126525;28;20048;-63
2023/04/26 13:33:29;;;;;;;2.88;1.77;;;;;;;;;;10120784;28;20045;-62
2023/04/26 13:38:25;;;;;;;5.78;1.60;;;;;;;;;;10112995;28;20052;-62
2023/04/26 13:43:19;;;;;;;2.78;1.30;;;;;;;;;;10133668;28;20114;-62
2023/04/26 13:48:13;;;;;;;2.35;1.30;;;;;;;;;;10111979;28;20061;-62
2023/04/26 13:53:07;;;;;;;3.83;1.92;;;;;;;;;;10098318;28;20132;-62
2023/04/26 13:58:00;;;;;;;4.38;1.60;;;;;;;;;;10101409;28;20136;-62
2023/04/26 14:02:54;;;;;;;2.80;1.63;;;;;;;;;;10095331;28;20040;-61
2023/04/26 14:07:48;;;;;;;3.50;1.13;;;;;;;;;;10074102;28;20045;-61
2023/04/26 14:12:45;;;;;;;3.85;1.48;;;;;;;;;;10102313;28;20049;-61
2023/04/26 14:17:40;;;;;;;3.20;2.05;;;;;;;;;;10090518;28;20456;-64
2023/04/26 14:22:35;;;;;;;2.63;1.25;;;;;;;;;;10086392;28;20045;-63
2023/04/26 14:27:33;;;;;;;4.90;1.87;;;;;;;;;;10088137;28;20067;-63
2023/04/26 14:32:29;;;;;;;1.70;1.60;;;;;;;;;;10089257;28;20050;-63
2023/04/26 14:37:26;;;;;;;5.22;1.73;;;;;;;;;;10088526;28;20525;-63
2023/04/26 14:42:24;;;;;;;2.45;1.60;;;;;;;;;;10087528;28;20045;-64
2023/04/26 14:47:21;;;;;;;3.35;2.05;;;;;;;;;;10080216;28;20077;-63
2023/04/26 14:52:20;;;;;;;;;;;;;;;;;;10125666;28;20045;-61
2023/04/26 14:57:16;;;;;;;5.10;2.10;;;;;;;;;;10119725;28;19924;-63
2023/04/26 15:02:11;;;;;;;4.75;2.58;;;;;;;;;;10121997;28;20045;-63
2023/04/26 15:07:06;;;;;;;4.97;2.53;;;;;;;;;;10110968;28;20053;-63
2023/04/26 15:12:14;;;;;;;6.15;1.88;;;;;;;;;;10121214;28;20488;-63
2023/04/26 15:17:08;;;;;;;2.78;2.08;;;;;;;;;;10108329;28;20049;-63
2023/04/26 15:22:06;;;;;;;3.55;2.40;;;;;;;;;;10118115;28;20442;-63
2023/04/26 15:27:03;;;;;;;2.13;1.60;;;;;;;;;;10119409;28;20060;-63
2023/04/26 15:32:01;;;;;;;2.53;2.05;;;;;;;;;;10120122;28;20052;-63
2023/04/26 15:36:59;;;;;;;4.65;2.30;;;;;;;;;;10100940;28;20154;-63
2023/04/26 15:41:53;;;;;;;7.63;2.33;;;;;;;;;;10107624;28;20166;-62
2023/04/26 15:46:47;;;;;;;3.88;2.08;;;;;;;;;;10120294;28;20127;-62
2023/04/26 15:51:42;;;;;;;3.28;2.13;;;;;;;;;;10137753;28;20103;-62
2023/04/26 15:56:36;;;;;;;7.18;2.25;;;;;;;;;;10125108;28;20067;-63
2023/04/26 16:01:29;;;;;;;4.90;2.05;;;;;;;;;;10125645;28;20048;-63
2023/04/26 16:06:23;;;;;;;2.85;2.17;;;;;;;;;;10130786;28;20414;-63
2023/04/26 16:11:16;;;;;;;3.55;2.30;;;;;;;;;;10113589;28;20114;-62
2023/04/26 16:16:10;;;;;;;4.40;2.33;;;;;;;;;;10127778;28;20521;-64
2023/04/26 16:21:11;;;;;;;7.63;2.25;;;;;;;;;;10142702;28;20131;-63
2023/04/26 16:26:05;;;;;;;3.67;1.98;;;;;;;;;;10145560;28;20388;-63
2023/04/26 16:30:59;;;;;;;3.55;2.40;;;;;;;;;;10147499;28;20045;-63
2023/04/26 16:35:54;;;;;;;4.43;1.60;;;;;;;;;;10147415;28;20098;-64
2023/04/26 16:40:58;;;;;;;3.15;1.48;;;;;;;;;;10143628;28;20052;-65
2023/04/26 16:46:07;;;;;;;5.85;1.60;;;;;;;;;;10142908;28;20083;-65
2023/04/26 16:51:03;;;;;;;1.98;1.50;;;;;;;;;;10092415;28;20106;-64
2023/04/26 16:55:59;;;;;;;3.55;2.28;;;;;;;;;;10092363;28;20049;-64
2023/04/26 17:00:53;;;;;;;3.28;2.67;;;;;;;;;;10090543;28;20049;-65
2023/04/26 17:05:46;;;;;;;3.33;2.50;;;;;;;;;;10091696;28;20099;-65
2023/04/26 17:10:41;;;;;;;3.75;2.38;;;;;;;;;;10075004;28;20080;-65
2023/04/26 17:15:35;;;;;;;10.38;3.45;;;;;;;;;;10082745;28;20049;-65
2023/04/26 17:20:28;;;;;;;4.72;2.13;;;;;;;;;;10103178;28;20056;-64
2023/04/26 17:25:23;;;;;;;3.28;1.52;;;;;;;;;;10099260;28;20120;-64
2023/04/26 17:30:18;;;;;;;3.10;1.58;;;;;;;;;;10079329;28;20068;-65
2023/04/26 17:35:11;;;;;;;5.32;1.42;;;;;;;;;;10073146;28;20053;-65
2023/04/26 17:40:07;;;;;;;4.28;1.55;;;;;;;;;;10071525;28;20049;-64
2023/04/26 17:45:01;;;;;;;2.83;1.45;;;;;;;;;;10053889;28;20049;-63
2023/04/26 17:49:55;;;;;;;1.20;1.10;;;;;;;;;;10110554;28;20108;-62
2023/04/26 17:54:51;;;;;;;2.58;1.27;;;;;;;;;;10130349;28;20136;-63
2023/04/26 17:59:45;;;;;;;2.85;1.20;;;;;;;;;;10120706;28;20076;-64
2023/04/26 18:04:39;;;;;;;3.05;1.30;;;;;;;;;;10142458;28;20404;-64
2023/04/26 18:09:34;;;;;;;5.55;1.73;;;;;;;;;;10159707;28;20495;-65
2023/04/26 18:14:28;;;;;;;5.05;2.40;;;;;;;;;;10160385;28;20499;-65
2023/04/26 18:19:21;;;;;;;7.22;1.67;;;;;;;;;;10138033;28;20064;-64
2023/04/26 18:24:15;;;;;;;1.80;1.30;;;;;;;;;;10138914;28;20072;-64
2023/04/26 18:29:09;;;;;;;2.35;2.13;;;;;;;;;;10146766;28;20052;-64
2023/04/26 18:34:03;;;;;;;5.60;4.03;;;;;;;;;;10138186;28;20146;-66
2023/04/26 18:38:56;;;;;;;4.20;3.22;;;;;;;;;;10130822;28;20048;-63
2023/04/26 18:43:52;;;;;;;3.13;2.42;;;;;;;;;;10156831;28;20106;-64
2023/04/26 18:48:45;;;;;;;5.70;2.15;;;;;;;;;;10157766;28;20060;-63
2023/04/26 18:53:38;;;;;;;6.70;1.60;;;;;;;;;;10151514;28;20048;-65
2023/04/26 18:58:31;;;;;;;6.00;2.70;;;;;;;;;;10135597;28;20101;-63
2023/04/26 19:03:25;;;;;;;4.72;2.50;;;;;;;;;;10138416;28;20044;-64
2023/04/26 19:08:19;;;;;;;5.53;3.50;;;;;;;;;;10133761;28;20055;-64
2023/04/26 19:13:14;;;;;;;6.05;3.20;;;;;;;;;;10131704;28;20580;-64
2023/04/26 19:18:07;;;;;;;9.57;3.30;;;;;;;;;;10127247;28;20048;-64
2023/04/26 19:23:01;;;;;;;5.15;2.50;;;;;;;;;;10137858;28;20048;-63
2023/04/26 19:27:54;;;;;;;6.10;2.40;;;;;;;;;;10151726;28;20495;-64
2023/04/26 19:32:47;;;;;;;5.97;1.90;;;;;;;;;;10141430;28;20458;-65
2023/04/26 19:37:41;;;;;;;6.28;2.28;;;;;;;;;;10149512;28;20052;-66
2023/04/26 19:42:34;;;;;;;4.32;2.95;;;;;;;;;;10148680;28;20052;-66
2023/04/26 19:47:28;;;;;;;5.15;2.67;;;;;;;;;;10144415;28;20155;-68
2023/04/26 19:52:21;;;;;;;2.60;2.40;;;;;;;;;;10140224;28;20110;-63
2023/04/26 19:57:14;;;;;;;10.55;2.70;;;;;;;;;;10153040;28;20083;-65
2023/04/26 20:02:08;;;;;;;4.60;2.90;;;;;;;;;;10140900;28;20048;-63
2023/04/26 20:07:03;;;;;;;4.40;3.38;;;;;;;;;;10147561;28;20124;-64
2023/04/26 20:11:57;;;;;;;4.00;2.83;;;;;;;;;;10139901;28;20049;-64
2023/04/26 20:16:52;;;;;;;8.38;2.70;;;;;;;;;;10135493;28;20544;-64
2023/04/26 20:21:46;;;;;;;6.20;3.10;;;;;;;;;;10139269;28;20063;-66
2023/04/26 20:26:40;;;;;;;6.05;3.30;;;;;;;;;;10147846;28;20080;-65
2023/04/26 20:31:34;;;;;;;11.70;4.70;;;;;;;;;;10138382;28;20048;-65
2023/04/26 20:36:28;;;;;;;4.00;3.60;;;;;;;;;;10145847;28;20045;-65
2023/04/26 20:41:22;;;;;;;6.25;3.80;;;;;;;;;;10142146;28;20070;-65
2023/04/26 20:46:16;;;;;;;6.35;4.03;;;;;;;;;;10152350;28;20082;-64
2023/04/26 20:51:09;;;;;;;4.72;3.97;;;;;;;;;;10144212;28;20476;-64
2023/04/26 20:56:04;;;;;;;5.03;3.75;;;;;;;;;;10157260;28;20067;-64
2023/04/26 21:00:58;;;;;;;5.72;3.97;;;;;;;;;;10140585;28;20114;-64
2023/04/26 21:05:52;;;;;;;4.25;3.63;;;;;;;;;;10130258;28;20088;-65
2023/04/26 21:10:47;;;;;;;4.35;3.17;;;;;;;;;;10104627;28;20076;-66
2023/04/26 21:15:40;;;;;;;3.83;2.70;;;;;;;;;;10085425;28;20103;-65
2023/04/26 21:20:34;;;;;;;10.15;2.83;;;;;;;;;;10103397;28;20049;-66
2023/04/26 21:25:28;;;;;;;4.57;3.25;;;;;;;;;;10109537;28;20048;-65
2023/04/26 21:30:21;;;;;;;2.95;2.58;;;;;;;;;;10135094;28;20060;-65
2023/04/26 21:35:15;;;;;;;7.38;2.88;;;;;;;;;;10122761;28;20405;-66
2023/04/26 21:40:09;;;;;;;5.45;2.88;;;;;;;;;;10124495;28;20106;-65
2023/04/26 21:45:03;;;;;;;5.80;2.92;;;;;;;;;;10138531;28;20085;-66
2023/04/26 21:49:56;;;;;;;3.58;2.45;;;;;;;;;;10132548;28;20111;-66
2023/04/26 21:54:51;;;;;;;4.80;2.92;;;;;;;;;;10129731;28;20106;-66
2023/04/26 21:59:45;;;;;;;3.38;3.08;;;;;;;;;;10139580;28;20492;-66
2023/04/26 22:04:40;;;;;;;5.25;2.70;;;;;;;;;;10109946;28;20484;-66
2023/04/26 22:09:34;;;;;;;5.53;3.05;;;;;;;;;;10110491;28;20060;-65
2023/04/26 22:14:28;;;;;;;4.43;2.78;;;;;;;;;;10131048;28;20431;-68
2023/04/26 22:19:21;;;;;;;4.13;2.70;;;;;;;;;;10122410;28;20082;-65
2023/04/26 22:24:17;;;;;;;4.80;2.40;;;;;;;;;;10115731;28;20049;-65
2023/04/26 22:29:10;;;;;;;4.93;2.55;;;;;;;;;;10116810;28;20102;-68
2023/04/26 22:34:04;;;;;;;6.35;2.78;;;;;;;;;;10146870;28;20097;-69
2023/04/26 22:38:58;;;;;;;6.55;2.30;;;;;;;;;;10137151;28;20044;-66
2023/04/26 22:43:51;;;;;;;3.05;2.75;;;;;;;;;;10116420;28;20055;-66
2023/04/26 22:48:45;;;;;;;6.70;3.42;;;;;;;;;;10095715;28;20060;-66
2023/04/26 22:53:38;;;;;;;5.72;2.90;;;;;;;;;;10087746;28;20554;-66
2023/04/26 22:58:32;;;;;;;7.60;2.75;;;;;;;;;;10073428;28;20076;-68
2023/04/26 23:03:25;;;;;;;4.47;2.15;;;;;;;;;;10087562;28;20049;-66
2023/04/26 23:08:18;;;;;;;3.90;2.42;;;;;;;;;;10092159;28;20068;-67
2023/04/26 23:13:13;;;;;;;3.72;3.05;;;;;;;;;;10101829;28;20053;-67
2023/04/26 23:18:08;;;;;;;5.13;3.95;;;;;;;;;;10112235;28;20478;-68
2023/04/26 23:23:01;;;;;;;20.45;4.22;;;;;;;;;;10103327;28;20072;-66
2023/04/26 23:27:55;;;;;;;4.60;3.90;;;;;;;;;;10105795;28;20044;-66
2023/04/26 23:32:50;;;;;;;10.18;3.83;;;;;;;;;;10106427;28;20136;-66
2023/04/26 23:37:44;;;;;;;4.70;3.70;;;;;;;;;;10106907;28;20061;-66
2023/04/26 23:42:41;;;;;;;7.78;3.58;;;;;;;;;;10104892;28;20080;-66
2023/04/26 23:47:37;;;;;;;;;;;;;;;;;;10118402;28;20064;-66
2023/04/26 23:52:32;;;;;;;3.92;3.50;;;;;;;;;;10150531;28;19943;-66
2023/04/26 23:57:27;;;;;;;5.28;4.05;;;;;;;;;;10148101;28;20044;-66
